Time;durP1;ratioP1;P1;durP2;ratioP2;P2;SDS_P1;SDS_P2;PMS_P1;PMS_P2;Temp;Humidity;BMP_temperature;BMP_pressure;BME280_temperature;BME280_humidity;BME280_pressure;Samples;Min_cycle;Max_cycle;Signal;HPM_P1;HPM_P2
2021/10/10 00:00:02;;;;;;;9.57;3.50;;;;;;;;;;5032121;28;20021;-44
2021/10/10 00:02:29;;;;;;;13.48;3.75;;;;;;;;;;5032375;28;20032;-49
2021/10/10 00:04:56;;;;;;;10.52;3.40;;;;;;;;;;5032130;28;20022;-43
2021/10/10 00:07:23;;;;;;;10.93;4.15;;;;;;;;;;5031706;28;20036;-46
2021/10/10 00:09:50;;;;;;;14.10;3.92;;;;;;;;;;5031743;28;20032;-42
2021/10/10 00:12:17;;;;;;;13.73;3.28;;;;;;;;;;5014567;28;20026;-43
2021/10/10 00:14:44;;;;;;;12.95;3.78;;;;;;;;;;5032027;28;20041;-46
2021/10/10 00:17:11;;;;;;;10.95;3.08;;;;;;;;;;5032283;28;20022;-53
2021/10/10 00:19:38;;;;;;;10.55;3.67;;;;;;;;;;5032109;28;20423;-49
2021/10/10 00:22:06;;;;;;;10.77;3.40;;;;;;;;;;5031817;28;20093;-49
2021/10/10 00:24:33;;;;;;;11.07;4.22;;;;;;;;;;5032112;28;20029;-45
2021/10/10 00:27:00;;;;;;;14.18;3.85;;;;;;;;;;5031833;28;20486;-50
2021/10/10 00:29:27;;;;;;;11.45;3.58;;;;;;;;;;5031819;28;20056;-50
2021/10/10 00:31:54;;;;;;;10.90;3.67;;;;;;;;;;5032016;28;20026;-52
2021/10/10 00:34:21;;;;;;;8.90;3.33;;;;;;;;;;5031786;28;20037;-48
2021/10/10 00:36:48;;;;;;;13.90;3.63;;;;;;;;;;5031597;28;20030;-53
2021/10/10 00:39:15;;;;;;;14.18;3.42;;;;;;;;;;5032052;28;20026;-50
2021/10/10 00:41:42;;;;;;;12.45;3.83;;;;;;;;;;5031812;28;20026;-53
2021/10/10 00:44:10;;;;;;;9.45;3.40;;;;;;;;;;5031715;28;20030;-46
2021/10/10 00:46:37;;;;;;;10.35;3.33;;;;;;;;;;5031980;28;20508;-43
2021/10/10 00:49:05;;;;;;;8.88;3.53;;;;;;;;;;5031927;28;20108;-49
2021/10/10 00:51:36;;;;;;;12.65;3.70;;;;;;;;;;5031608;28;20024;-55
2021/10/10 00:54:07;;;;;;;17.00;3.57;;;;;;;;;;5031730;28;20116;-50
2021/10/10 00:56:34;;;;;;;10.88;4.45;;;;;;;;;;5032119;28;20314;-45
2021/10/10 00:59:01;;;;;;;11.43;3.53;;;;;;;;;;5031696;28;20021;-47
2021/10/10 01:01:29;;;;;;;8.57;3.15;;;;;;;;;;5031673;28;20092;-47
2021/10/10 01:03:56;;;;;;;11.88;3.55;;;;;;;;;;5031744;28;20026;-49
2021/10/10 01:06:24;;;;;;;9.75;3.90;;;;;;;;;;5031638;28;20052;-50
2021/10/10 01:08:51;;;;;;;8.73;3.92;;;;;;;;;;5031514;28;20033;-43
2021/10/10 01:11:18;;;;;;;9.77;3.45;;;;;;;;;;5031722;28;20025;-52
2021/10/10 01:13:45;;;;;;;8.63;3.45;;;;;;;;;;5031549;28;20030;-43
2021/10/10 01:16:12;;;;;;;8.18;3.25;;;;;;;;;;5031491;28;20045;-43
2021/10/10 01:18:39;;;;;;;10.40;3.45;;;;;;;;;;5031512;28;20025;-49
2021/10/10 01:21:06;;;;;;;8.38;3.35;;;;;;;;;;5034534;28;20124;-45
2021/10/10 01:23:33;;;;;;;10.40;3.10;;;;;;;;;;5035043;28;20104;-43
2021/10/10 01:26:00;;;;;;;9.70;3.20;;;;;;;;;;5035067;28;20048;-45
2021/10/10 01:28:27;;;;;;;9.50;3.80;;;;;;;;;;5034958;28;20017;-43
2021/10/10 01:30:54;;;;;;;9.32;3.00;;;;;;;;;;5034615;28;20135;-49
2021/10/10 01:33:21;;;;;;;7.95;3.00;;;;;;;;;;5034870;28;20104;-50
2021/10/10 01:35:48;;;;;;;8.15;3.05;;;;;;;;;;5033502;28;20048;-51
2021/10/10 01:38:16;;;;;;;11.05;3.35;;;;;;;;;;5034591;28;20444;-41
2021/10/10 01:40:45;;;;;;;7.45;3.40;;;;;;;;;;5034901;28;20014;-48
2021/10/10 01:43:13;;;;;;;9.95;3.25;;;;;;;;;;5034601;28;20503;-42
2021/10/10 01:45:40;;;;;;;7.97;3.22;;;;;;;;;;5034996;28;20026;-47
2021/10/10 01:48:07;;;;;;;7.95;3.50;;;;;;;;;;5034390;28;20027;-46
2021/10/10 01:50:34;;;;;;;6.95;2.88;;;;;;;;;;5034657;28;20049;-50
2021/10/10 01:53:01;;;;;;;11.05;3.22;;;;;;;;;;5034333;28;20372;-42
2021/10/10 01:55:28;;;;;;;7.80;2.83;;;;;;;;;;5034522;28;20021;-44
2021/10/10 01:57:55;;;;;;;8.30;3.17;;;;;;;;;;5034534;28;20010;-44
2021/10/10 02:00:22;;;;;;;7.07;2.78;;;;;;;;;;5034416;28;20017;-53
2021/10/10 02:02:49;;;;;;;6.55;2.90;;;;;;;;;;5034000;28;20029;-43
2021/10/10 02:05:16;;;;;;;8.60;2.90;;;;;;;;;;5034255;28;20040;-42
2021/10/10 02:07:43;;;;;;;7.35;3.20;;;;;;;;;;5034071;28;20104;-56
2021/10/10 02:10:11;;;;;;;6.78;3.10;;;;;;;;;;5032838;28;20384;-57
2021/10/10 02:12:38;;;;;;;6.50;2.90;;;;;;;;;;5034149;28;20414;-59
2021/10/10 02:15:06;;;;;;;6.57;3.03;;;;;;;;;;5033879;28;20044;-60
2021/10/10 02:17:33;;;;;;;6.75;2.65;;;;;;;;;;5033927;28;20049;-57
2021/10/10 02:20:00;;;;;;;8.07;2.95;;;;;;;;;;5033948;28;20021;-55
2021/10/10 02:22:27;;;;;;;11.98;3.58;;;;;;;;;;5034001;28;20021;-60
2021/10/10 02:24:54;;;;;;;7.57;3.08;;;;;;;;;;5033771;28;20056;-58
2021/10/10 02:27:21;;;;;;;5.43;2.85;;;;;;;;;;5034024;28;20048;-60
2021/10/10 02:29:48;;;;;;;10.07;2.95;;;;;;;;;;5033624;28;20455;-50
2021/10/10 02:32:15;;;;;;;7.70;2.75;;;;;;;;;;5032768;28;20022;-60
2021/10/10 02:34:42;;;;;;;7.95;2.85;;;;;;;;;;5033827;28;20032;-57
2021/10/10 02:37:10;;;;;;;8.40;2.85;;;;;;;;;;5032394;28;20491;-54
2021/10/10 02:39:37;;;;;;;7.30;2.58;;;;;;;;;;5033711;28;20104;-58
2021/10/10 02:42:04;;;;;;;8.27;2.75;;;;;;;;;;5032400;28;20067;-59
2021/10/10 02:44:31;;;;;;;6.68;2.92;;;;;;;;;;5033443;28;20108;-57
2021/10/10 02:46:59;;;;;;;6.90;2.50;;;;;;;;;;5033360;28;20068;-61
2021/10/10 02:49:26;;;;;;;6.85;2.78;;;;;;;;;;5033644;28;20021;-49
2021/10/10 02:51:53;;;;;;;6.70;3.00;;;;;;;;;;5033293;28;20508;-62
2021/10/10 02:54:20;;;;;;;7.07;2.42;;;;;;;;;;5031885;28;20041;-54
2021/10/10 02:56:47;;;;;;;6.95;2.92;;;;;;;;;;5032127;28;20155;-61
2021/10/10 02:59:14;;;;;;;8.60;2.78;;;;;;;;;;5033197;28;20033;-58
2021/10/10 03:01:41;;;;;;;8.02;2.85;;;;;;;;;;5033067;28;20500;-42
2021/10/10 03:04:08;;;;;;;11.48;2.90;;;;;;;;;;5033243;28;20489;-43
2021/10/10 03:06:35;;;;;;;8.30;2.55;;;;;;;;;;5031731;28;20366;-41
2021/10/10 03:09:02;;;;;;;9.77;2.78;;;;;;;;;;5032847;28;20057;-41
2021/10/10 03:11:29;;;;;;;7.32;2.67;;;;;;;;;;5033117;28;20024;-43
2021/10/10 03:13:56;;;;;;;8.13;2.47;;;;;;;;;;5032893;28;20040;-41
2021/10/10 03:16:23;;;;;;;7.55;2.50;;;;;;;;;;5031497;28;20057;-45
2021/10/10 03:18:49;;;;;;;6.40;2.15;;;;;;;;;;5031603;28;20384;-43
2021/10/10 03:21:16;;;;;;;6.35;2.30;;;;;;;;;;5032559;28;20028;-42
2021/10/10 03:23:43;;;;;;;6.47;2.47;;;;;;;;;;5032995;28;20037;-44
2021/10/10 03:26:12;;;;;;;9.27;2.45;;;;;;;;;;5032670;28;20053;-42
2021/10/10 03:28:39;;;;;;;6.05;2.17;;;;;;;;;;5032529;28;20393;-40
2021/10/10 03:31:06;;;;;;;8.15;2.42;;;;;;;;;;5032378;28;20121;-42
2021/10/10 03:33:33;;;;;;;7.85;2.42;;;;;;;;;;5032657;28;20500;-42
2021/10/10 03:36:00;;;;;;;6.97;2.47;;;;;;;;;;5032726;28;20036;-42
2021/10/10 03:38:27;;;;;;;5.75;2.30;;;;;;;;;;5032610;28;20021;-54
2021/10/10 03:40:54;;;;;;;5.88;2.47;;;;;;;;;;5032438;28;20033;-54
2021/10/10 03:43:21;;;;;;;8.20;2.38;;;;;;;;;;5032603;28;20030;-58
2021/10/10 03:45:48;;;;;;;4.20;1.92;;;;;;;;;;5014852;28;20025;-58
2021/10/10 03:48:15;;;;;;;7.00;2.88;;;;;;;;;;5032335;28;20033;-57
2021/10/10 03:50:42;;;;;;;7.28;2.40;;;;;;;;;;5032776;28;20033;-56
2021/10/10 03:53:08;;;;;;;6.95;2.60;;;;;;;;;;5032142;28;20626;-61
2021/10/10 03:55:37;;;;;;;7.57;2.08;;;;;;;;;;5032342;28;20460;-56
2021/10/10 03:58:05;;;;;;;8.52;2.20;;;;;;;;;;5032245;28;20060;-48
2021/10/10 04:00:33;;;;;;;6.38;2.55;;;;;;;;;;5032260;28;20377;-44
2021/10/10 04:03:04;;;;;;;7.13;2.22;;;;;;;;;;5031922;28;20044;-50
2021/10/10 04:08:00;;;;;;;6.03;1.88;;;;;;;;;;5032218;28;20128;-49
2021/10/10 04:10:27;;;;;;;5.57;2.25;;;;;;;;;;5032128;28;20032;-52
2021/10/10 04:12:54;;;;;;;7.65;2.33;;;;;;;;;;5032134;28;20116;-45
2021/10/10 04:15:21;;;;;;;5.30;2.17;;;;;;;;;;5031819;28;20044;-42
2021/10/10 04:17:48;;;;;;;6.90;1.95;;;;;;;;;;5032106;28;20025;-46
2021/10/10 04:20:17;;;;;;;6.47;2.42;;;;;;;;;;5032137;28;20030;-49
2021/10/10 04:22:44;;;;;;;4.03;1.75;;;;;;;;;;5032029;28;20026;-47
2021/10/10 04:25:12;;;;;;;5.88;2.00;;;;;;;;;;5031890;28;20056;-44
2021/10/10 04:27:39;;;;;;;6.45;2.00;;;;;;;;;;5031797;28;20408;-52
2021/10/10 04:30:09;;;;;;;4.68;1.85;;;;;;;;;;5031878;28;20037;-52
2021/10/10 04:32:36;;;;;;;6.43;1.98;;;;;;;;;;5031773;28;20048;-49
2021/10/10 04:35:03;;;;;;;5.82;1.95;;;;;;;;;;5031893;28;20041;-48
2021/10/10 04:37:30;;;;;;;4.93;2.10;;;;;;;;;;5032059;28;20469;-53
2021/10/10 04:39:57;;;;;;;5.13;1.88;;;;;;;;;;5031827;28;20021;-51
2021/10/10 04:42:24;;;;;;;4.20;1.70;;;;;;;;;;5031728;28;20120;-47
2021/10/10 04:44:51;;;;;;;6.15;1.70;;;;;;;;;;5032130;28;20018;-46
2021/10/10 04:47:19;;;;;;;5.50;2.22;;;;;;;;;;5031806;28;20036;-48
2021/10/10 04:49:46;;;;;;;3.47;1.58;;;;;;;;;;5031619;28;20100;-45
2021/10/10 04:52:13;;;;;;;8.65;1.75;;;;;;;;;;5031862;28;20032;-45
2021/10/10 04:54:40;;;;;;;7.20;1.77;;;;;;;;;;5032778;28;20041;-50
2021/10/10 04:57:07;;;;;;;5.35;2.33;;;;;;;;;;5035910;28;20021;-43
2021/10/10 04:59:34;;;;;;;4.65;1.73;;;;;;;;;;5035659;28;20022;-43
2021/10/10 05:02:01;;;;;;;5.57;1.65;;;;;;;;;;5017919;28;20480;-47
2021/10/10 05:04:28;;;;;;;5.95;1.85;;;;;;;;;;5035330;28;20028;-44
2021/10/10 05:06:55;;;;;;;5.85;1.75;;;;;;;;;;5035536;28;20040;-43
2021/10/10 05:09:22;;;;;;;5.65;1.52;;;;;;;;;;5001369;28;20413;-43
2021/10/10 05:11:49;;;;;;;3.45;1.77;;;;;;;;;;5035124;28;20013;-50
2021/10/10 05:14:16;;;;;;;3.63;1.65;;;;;;;;;;5035271;28;20595;-42
2021/10/10 05:16:43;;;;;;;4.60;1.60;;;;;;;;;;5035261;28;20401;-43
2021/10/10 05:19:10;;;;;;;6.65;1.60;;;;;;;;;;5033833;28;20374;-44
2021/10/10 05:21:37;;;;;;;4.68;1.50;;;;;;;;;;5035162;28;20022;-47
2021/10/10 05:24:04;;;;;;;4.40;1.40;;;;;;;;;;5035077;28;20104;-44
2021/10/10 05:26:31;;;;;;;5.55;1.63;;;;;;;;;;5034836;28;20021;-42
2021/10/10 05:28:58;;;;;;;4.20;1.92;;;;;;;;;;5034938;28;20477;-42
2021/10/10 05:31:25;;;;;;;4.60;1.77;;;;;;;;;;5034889;28;20493;-42
2021/10/10 05:33:52;;;;;;;2.83;1.60;;;;;;;;;;5034889;28;20034;-46
2021/10/10 05:36:19;;;;;;;3.72;1.60;;;;;;;;;;5035007;28;20029;-54
2021/10/10 05:38:46;;;;;;;3.35;1.60;;;;;;;;;;5034812;28;20027;-45
2021/10/10 05:41:13;;;;;;;7.00;1.90;;;;;;;;;;5034411;28;20021;-46
2021/10/10 05:43:40;;;;;;;6.30;1.70;;;;;;;;;;5034915;28;20105;-43
2021/10/10 05:46:07;;;;;;;8.68;1.60;;;;;;;;;;5034675;28;20025;-43
2021/10/10 05:48:34;;;;;;;4.72;1.27;;;;;;;;;;5034956;28;20032;-42
2021/10/10 05:51:01;;;;;;;4.22;1.63;;;;;;;;;;5034404;28;20053;-43
2021/10/10 05:53:28;;;;;;;4.35;1.63;;;;;;;;;;5034462;28;20432;-43
2021/10/10 05:55:59;;;;;;;3.45;1.33;;;;;;;;;;5034294;28;20392;-43
2021/10/10 05:58:28;;;;;;;5.50;1.77;;;;;;;;;;5034357;28;20095;-43
2021/10/10 06:00:55;;;;;;;4.50;1.58;;;;;;;;;;5033391;28;20029;-42
2021/10/10 06:03:22;;;;;;;4.53;1.30;;;;;;;;;;5034166;28;20021;-41
2021/10/10 06:05:49;;;;;;;5.45;1.60;;;;;;;;;;5033245;28;20045;-43
2021/10/10 06:08:16;;;;;;;3.10;1.23;;;;;;;;;;5034265;28;20469;-42
2021/10/10 06:10:44;;;;;;;4.78;1.65;;;;;;;;;;5034430;28;20029;-55
2021/10/10 06:13:11;;;;;;;5.20;1.42;;;;;;;;;;5034152;28;20022;-61
2021/10/10 06:15:40;;;;;;;2.55;1.27;;;;;;;;;;5034218;28;20116;-59
2021/10/10 06:18:10;;;;;;;1.88;1.17;;;;;;;;;;5034011;28;20053;-60
2021/10/10 06:20:37;;;;;;;5.75;1.30;;;;;;;;;;5033923;28;20029;-55
2021/10/10 06:23:04;;;;;;;4.85;1.23;;;;;;;;;;5016310;28;20396;-50
2021/10/10 06:25:31;;;;;;;3.00;1.30;;;;;;;;;;5033696;28;20022;-49
2021/10/10 06:27:58;;;;;;;2.95;1.25;;;;;;;;;;5015944;28;20021;-59
2021/10/10 06:30:25;;;;;;;3.88;1.15;;;;;;;;;;5033720;28;20037;-59
2021/10/10 06:32:52;;;;;;;3.60;1.00;;;;;;;;;;5016079;28;20030;-48
2021/10/10 06:35:19;;;;;;;4.07;1.30;;;;;;;;;;5033544;28;20496;-49
2021/10/10 06:37:46;;;;;;;3.15;1.33;;;;;;;;;;5033775;28;20067;-50
2021/10/10 06:40:13;;;;;;;3.78;1.48;;;;;;;;;;5033606;28;20512;-43
2021/10/10 06:42:42;;;;;;;4.13;1.33;;;;;;;;;;5033573;28;20025;-42
2021/10/10 06:45:09;;;;;;;4.28;1.10;;;;;;;;;;5033692;28;20104;-46
2021/10/10 06:47:36;;;;;;;3.13;1.13;;;;;;;;;;5033482;28;20036;-42
2021/10/10 06:50:04;;;;;;;4.10;1.52;;;;;;;;;;5033351;28;20049;-43
2021/10/10 06:52:31;;;;;;;3.20;1.20;;;;;;;;;;5033529;28;20377;-48
2021/10/10 06:54:58;;;;;;;2.92;1.48;;;;;;;;;;5015582;28;20409;-49
2021/10/10 06:57:29;;;;;;;3.88;1.10;;;;;;;;;;5033379;28;20017;-42
2021/10/10 06:59:58;;;;;;;4.57;1.13;;;;;;;;;;5033124;28;20024;-42
2021/10/10 07:02:25;;;;;;;4.10;1.27;;;;;;;;;;5033251;28;20101;-46
2021/10/10 07:04:53;;;;;;;3.38;1.20;;;;;;;;;;5033194;28;20032;-45
2021/10/10 07:07:20;;;;;;;2.47;1.30;;;;;;;;;;5033048;28;20036;-47
2021/10/10 07:09:47;;;;;;;3.47;1.30;;;;;;;;;;5033277;28;20029;-52
2021/10/10 07:12:14;;;;;;;2.38;1.05;;;;;;;;;;5032891;28;20026;-55
2021/10/10 07:14:41;;;;;;;2.70;1.13;;;;;;;;;;5032856;28;20132;-53
2021/10/10 07:17:08;;;;;;;2.70;1.23;;;;;;;;;;5032888;28;20201;-50
2021/10/10 07:19:54;;;;;;;3.88;1.10;;;;;;;;;;5032811;28;20104;-47
2021/10/10 07:22:45;;;;;;;3.53;1.30;;;;;;;;;;5032768;28;20030;-43
2021/10/10 07:25:12;;;;;;;2.65;1.00;;;;;;;;;;5032584;28;20478;-53
2021/10/10 07:27:41;;;;;;;2.85;1.27;;;;;;;;;;5032725;28;20021;-52
2021/10/10 07:30:13;;;;;;;3.22;1.50;;;;;;;;;;5032646;28;20100;-45
2021/10/10 07:32:41;;;;;;;3.75;1.15;;;;;;;;;;5032711;28;20535;-57
2021/10/10 07:35:09;;;;;;;1.88;0.95;;;;;;;;;;5032655;28;20132;-57
2021/10/10 07:37:36;;;;;;;2.80;1.20;;;;;;;;;;5032581;28;20029;-56
2021/10/10 07:40:04;;;;;;;1.83;1.17;;;;;;;;;;5032702;28;20028;-43
2021/10/10 07:42:31;;;;;;;6.38;1.40;;;;;;;;;;5032505;28;20590;-42
2021/10/10 07:45:06;;;;;;;2.88;1.17;;;;;;;;;;5032443;28;20022;-45
2021/10/10 07:50:10;;;;;;;4.05;1.23;;;;;;;;;;5032698;28;20499;-45
2021/10/10 07:52:38;;;;;;;2.78;1.08;;;;;;;;;;5032377;28;20508;-44
2021/10/10 07:55:05;;;;;;;3.70;1.10;;;;;;;;;;5032354;28;20033;-46
2021/10/10 07:57:32;;;;;;;2.97;1.00;;;;;;;;;;5032459;28;20026;-44
2021/10/10 07:59:59;;;;;;;4.07;1.23;;;;;;;;;;5032122;28;20443;-42
2021/10/10 08:02:27;;;;;;;3.15;0.88;;;;;;;;;;5032161;28;20021;-44
2021/10/10 08:04:54;;;;;;;2.55;0.82;;;;;;;;;;5032443;28;20440;-43
2021/10/10 08:07:21;;;;;;;2.60;1.10;;;;;;;;;;5032210;28;20117;-44
2021/10/10 08:09:48;;;;;;;3.72;0.98;;;;;;;;;;5032118;28;20029;-45
2021/10/10 08:12:15;;;;;;;2.75;1.13;;;;;;;;;;5032107;28;20068;-43
2021/10/10 08:14:42;;;;;;;1.67;0.88;;;;;;;;;;5032007;28;20034;-42
2021/10/10 08:17:09;;;;;;;3.13;0.85;;;;;;;;;;5032220;28;20080;-42
2021/10/10 08:19:36;;;;;;;2.72;0.98;;;;;;;;;;5014512;28;20022;-45
2021/10/10 08:22:03;;;;;;;2.33;0.70;;;;;;;;;;5031960;28;20113;-44
2021/10/10 08:24:30;;;;;;;2.20;1.05;;;;;;;;;;5032064;28;20355;-44
2021/10/10 08:26:57;;;;;;;2.78;1.10;;;;;;;;;;5032495;28;20024;-46
2021/10/10 08:29:24;;;;;;;2.90;1.00;;;;;;;;;;5032426;28;20025;-43
2021/10/10 08:31:51;;;;;;;1.60;0.90;;;;;;;;;;5035938;28;20457;-43
2021/10/10 08:34:18;;;;;;;1.65;0.73;;;;;;;;;;5036107;28;20037;-40
2021/10/10 08:36:45;;;;;;;3.20;0.80;;;;;;;;;;5035981;28;20526;-45
2021/10/10 08:39:12;;;;;;;1.90;0.80;;;;;;;;;;5035895;28;20052;-44
2021/10/10 08:41:40;;;;;;;1.70;0.70;;;;;;;;;;5035889;28;20014;-42
2021/10/10 08:44:11;;;;;;;3.80;1.10;;;;;;;;;;5035826;28;20029;-41
2021/10/10 08:46:39;;;;;;;1.73;0.88;;;;;;;;;;5035690;28;20026;-44
2021/10/10 08:49:06;;;;;;;3.45;1.00;;;;;;;;;;5035612;28;20102;-42
2021/10/10 08:51:38;;;;;;;3.33;1.10;;;;;;;;;;5035788;28;20022;-43
2021/10/10 08:54:05;;;;;;;2.95;0.75;;;;;;;;;;5035680;28;20041;-40
2021/10/10 08:56:32;;;;;;;5.20;1.13;;;;;;;;;;5035373;28;20040;-43
2021/10/10 08:59:00;;;;;;;1.88;0.80;;;;;;;;;;5035617;28;20023;-42
2021/10/10 09:01:32;;;;;;;1.15;0.80;;;;;;;;;;5035292;28;20025;-43
2021/10/10 09:03:59;;;;;;;;;;;;;;;;;;5035632;28;20389;-48
2021/10/10 09:06:26;;;;;;;2.60;1.00;;;;;;;;;;5035624;28;19905;-43
2021/10/10 09:08:53;;;;;;;1.83;0.77;;;;;;;;;;5035511;28;20027;-42
2021/10/10 09:11:20;;;;;;;1.55;0.80;;;;;;;;;;5035230;28;20021;-48
2021/10/10 09:13:48;;;;;;;1.42;0.70;;;;;;;;;;5035299;28;20026;-43
2021/10/10 09:16:15;;;;;;;3.22;0.75;;;;;;;;;;5035394;28;20530;-42
2021/10/10 09:18:43;;;;;;;2.72;0.80;;;;;;;;;;5035202;28;20428;-43
2021/10/10 09:21:18;;;;;;;1.33;0.80;;;;;;;;;;5035157;28;20100;-45
2021/10/10 09:23:49;;;;;;;2.50;0.93;;;;;;;;;;5017451;28;20017;-42
2021/10/10 09:26:17;;;;;;;3.22;0.82;;;;;;;;;;5017311;28;20489;-42
2021/10/10 09:28:44;;;;;;;4.03;0.95;;;;;;;;;;5035003;28;20036;-45
2021/10/10 09:31:13;;;;;;;4.15;0.85;;;;;;;;;;5034938;28;20049;-44
2021/10/10 09:33:49;;;;;;;1.67;0.70;;;;;;;;;;5034908;28;20025;-42
2021/10/10 09:36:21;;;;;;;3.08;0.80;;;;;;;;;;5034783;28;20556;-44
2021/10/10 09:41:31;;;;;;;3.35;0.90;;;;;;;;;;5034566;28;20385;-43
2021/10/10 09:44:30;;;;;;;2.45;0.82;;;;;;;;;;5034742;28;20053;-41
2021/10/10 09:47:01;;;;;;;1.67;0.80;;;;;;;;;;5034444;28;20079;-49
2021/10/10 09:49:30;;;;;;;1.33;0.75;;;;;;;;;;5034646;28;20030;-44
2021/10/10 09:52:10;;;;;;;2.13;0.80;;;;;;;;;;5033934;28;20017;-42
2021/10/10 09:54:54;;;;;;;2.35;0.85;;;;;;;;;;5034623;28;20034;-43
2021/10/10 09:57:22;;;;;;;1.30;0.60;;;;;;;;;;5034384;28;20032;-42
2021/10/10 09:59:49;;;;;;;1.83;0.70;;;;;;;;;;5034711;28;20025;-42
2021/10/10 10:02:17;;;;;;;2.70;0.95;;;;;;;;;;5034369;28;20021;-42
2021/10/10 10:04:48;;;;;;;1.38;0.95;;;;;;;;;;5034399;28;20029;-43
2021/10/10 10:07:16;;;;;;;2.88;1.00;;;;;;;;;;5034238;28;20499;-44
2021/10/10 10:09:49;;;;;;;1.80;0.70;;;;;;;;;;5034273;28;20018;-42
2021/10/10 10:12:18;;;;;;;1.88;0.70;;;;;;;;;;5034234;28;20388;-58
2021/10/10 10:14:50;;;;;;;2.55;0.90;;;;;;;;;;5034137;28;20029;-55
2021/10/10 10:17:18;;;;;;;1.42;0.50;;;;;;;;;;5032849;28;20562;-43
2021/10/10 10:19:46;;;;;;;3.65;0.75;;;;;;;;;;5034108;28;20104;-51
2021/10/10 10:22:14;;;;;;;1.80;0.88;;;;;;;;;;5034173;28;20024;-49
2021/10/10 10:24:44;;;;;;;2.80;0.70;;;;;;;;;;5033878;28;20030;-42
2021/10/10 10:27:12;;;;;;;1.42;0.57;;;;;;;;;;5033797;28;20032;-61
2021/10/10 10:29:39;;;;;;;1.25;0.80;;;;;;;;;;5033828;28;20037;-49
2021/10/10 10:32:09;;;;;;;2.70;0.68;;;;;;;;;;5033813;28;20017;-58
2021/10/10 10:34:36;;;;;;;1.65;0.70;;;;;;;;;;5033694;28;20040;-61
2021/10/10 10:37:11;;;;;;;2.15;0.80;;;;;;;;;;5034210;28;20014;-46
2021/10/10 10:39:38;;;;;;;1.35;0.77;;;;;;;;;;5033555;28;20084;-47
2021/10/10 10:42:15;;;;;;;1.67;0.70;;;;;;;;;;5033558;28;20470;-51
2021/10/10 10:44:48;;;;;;;2.53;0.90;;;;;;;;;;5033615;28;20386;-43
2021/10/10 10:47:16;;;;;;;3.05;0.82;;;;;;;;;;5033639;28;20508;-58
2021/10/10 10:49:49;;;;;;;1.85;0.85;;;;;;;;;;5033533;28;20056;-52
2021/10/10 10:52:35;;;;;;;2.08;0.75;;;;;;;;;;5032705;28;20033;-58
2021/10/10 10:55:21;;;;;;;2.67;0.85;;;;;;;;;;5033340;28;20087;-59
2021/10/10 10:58:03;;;;;;;4.30;0.82;;;;;;;;;;5033385;28;20397;-46
2021/10/10 11:00:41;;;;;;;2.85;0.80;;;;;;;;;;5033141;28;20022;-56
2021/10/10 11:03:08;;;;;;;3.83;0.88;;;;;;;;;;5033147;28;20029;-56
2021/10/10 11:05:35;;;;;;;3.00;0.80;;;;;;;;;;5033229;28;20099;-59
2021/10/10 11:08:04;;;;;;;3.85;0.93;;;;;;;;;;5033331;28;20021;-61
2021/10/10 11:10:31;;;;;;;2.90;0.93;;;;;;;;;;5033034;28;20014;-60
2021/10/10 11:13:07;;;;;;;3.85;0.85;;;;;;;;;;5032958;28;20108;-50
2021/10/10 11:15:54;;;;;;;2.13;0.82;;;;;;;;;;5033180;28;20030;-49
2021/10/10 11:18:22;;;;;;;1.77;0.80;;;;;;;;;;5033116;28;20025;-45
2021/10/10 11:20:56;;;;;;;2.95;0.90;;;;;;;;;;5032826;28;20032;-54
2021/10/10 11:23:24;;;;;;;3.13;0.95;;;;;;;;;;5032757;28;20493;-42
2021/10/10 11:25:52;;;;;;;3.15;0.93;;;;;;;;;;5032688;28;20025;-44
2021/10/10 11:28:20;;;;;;;1.48;0.70;;;;;;;;;;5032935;28;20366;-49
2021/10/10 11:30:47;;;;;;;1.38;0.60;;;;;;;;;;5032507;28;20261;-42
2021/10/10 11:33:15;;;;;;;5.03;1.20;;;;;;;;;;5032649;28;20029;-47
2021/10/10 11:35:44;;;;;;;5.25;0.98;;;;;;;;;;5032759;28;20115;-41
2021/10/10 11:38:12;;;;;;;2.33;0.93;;;;;;;;;;5032493;28;20097;-48
2021/10/10 11:40:58;;;;;;;1.88;0.80;;;;;;;;;;5032409;28;20030;-47
2021/10/10 11:43:25;;;;;;;3.53;0.98;;;;;;;;;;5032509;28;20032;-48
2021/10/10 11:45:59;;;;;;;1.63;0.70;;;;;;;;;;5032663;28;20022;-45
2021/10/10 11:48:33;;;;;;;2.92;0.93;;;;;;;;;;5032487;28;20117;-42
2021/10/10 11:51:01;;;;;;;3.05;0.90;;;;;;;;;;5032271;28;20060;-50
2021/10/10 11:53:35;;;;;;;4.50;0.80;;;;;;;;;;5032276;28;20025;-47
2021/10/10 11:56:03;;;;;;;2.13;0.80;;;;;;;;;;5032284;28;20025;-42
2021/10/10 11:58:32;;;;;;;3.00;1.08;;;;;;;;;;5032433;28;20048;-54
2021/10/10 12:01:11;;;;;;;1.67;0.60;;;;;;;;;;5032239;28;20428;-56
2021/10/10 12:03:48;;;;;;;4.18;1.23;;;;;;;;;;5031590;28;20026;-43
2021/10/10 12:06:21;;;;;;;2.65;0.90;;;;;;;;;;5032086;28;20044;-46
2021/10/10 12:08:49;;;;;;;6.55;1.17;;;;;;;;;;5032527;28;20032;-43
2021/10/10 12:11:16;;;;;;;2.47;1.10;;;;;;;;;;5032089;28;20092;-44
2021/10/10 12:13:56;;;;;;;3.05;1.00;;;;;;;;;;5031969;28;20029;-54
2021/10/10 12:16:23;;;;;;;2.63;0.80;;;;;;;;;;5032095;28;20048;-46
2021/10/10 12:18:57;;;;;;;2.88;0.80;;;;;;;;;;5032275;28;20052;-41
2021/10/10 12:21:28;;;;;;;1.88;0.90;;;;;;;;;;5030936;28;20436;-45
2021/10/10 12:24:15;;;;;;;4.13;1.20;;;;;;;;;;5032142;28;20025;-41
2021/10/10 12:26:46;;;;;;;5.82;1.23;;;;;;;;;;5032096;28;20034;-43
2021/10/10 12:29:20;;;;;;;5.05;1.10;;;;;;;;;;5031765;28;20274;-43
2021/10/10 12:31:47;;;;;;;3.13;1.20;;;;;;;;;;5031745;28;20049;-46
2021/10/10 12:34:14;;;;;;;5.45;1.40;;;;;;;;;;5031933;28;20048;-45
2021/10/10 12:36:48;;;;;;;2.33;1.02;;;;;;;;;;5031978;28;20021;-44
2021/10/10 12:39:16;;;;;;;3.38;1.30;;;;;;;;;;5031887;28;20104;-52
2021/10/10 12:41:43;;;;;;;2.75;1.20;;;;;;;;;;5032292;28;20101;-46
2021/10/10 12:44:11;;;;;;;4.18;1.20;;;;;;;;;;5031731;28;20017;-46
2021/10/10 12:46:52;;;;;;;5.47;1.48;;;;;;;;;;5031789;28;20030;-40
2021/10/10 12:49:32;;;;;;;4.68;1.38;;;;;;;;;;5031746;28;20095;-42
2021/10/10 12:52:00;;;;;;;4.95;1.55;;;;;;;;;;5031556;28;20036;-47
2021/10/10 12:54:28;;;;;;;4.55;1.30;;;;;;;;;;5030336;28;20033;-42
2021/10/10 12:57:09;;;;;;;4.03;1.67;;;;;;;;;;5031797;28;20101;-44
2021/10/10 12:59:37;;;;;;;3.38;1.60;;;;;;;;;;5031722;28;20465;-49
2021/10/10 13:02:07;;;;;;;4.57;1.70;;;;;;;;;;5031605;28;20380;-46
2021/10/10 13:04:36;;;;;;;3.55;1.40;;;;;;;;;;5031792;28;20025;-47
2021/10/10 13:07:03;;;;;;;2.50;1.30;;;;;;;;;;5031610;28;20033;-42
2021/10/10 13:09:30;;;;;;;7.22;1.70;;;;;;;;;;5031648;28;20041;-42
2021/10/10 13:11:58;;;;;;;3.78;1.40;;;;;;;;;;5031727;28;20067;-42
2021/10/10 13:14:28;;;;;;;4.95;1.73;;;;;;;;;;5031471;28;20455;-43
2021/10/10 13:16:55;;;;;;;5.75;1.73;;;;;;;;;;5034429;28;20067;-45
2021/10/10 13:19:23;;;;;;;3.33;1.52;;;;;;;;;;5035408;28;20033;-43
2021/10/10 13:21:50;;;;;;;4.55;1.80;;;;;;;;;;5034857;28;20389;-44
2021/10/10 13:24:18;;;;;;;6.70;1.60;;;;;;;;;;5035151;28;20028;-48
2021/10/10 13:26:45;;;;;;;6.85;1.92;;;;;;;;;;5035106;28;20028;-41
2021/10/10 13:29:18;;;;;;;6.32;1.80;;;;;;;;;;5035184;28;20018;-42
2021/10/10 13:31:45;;;;;;;5.43;2.00;;;;;;;;;;5034514;28;20501;-44
2021/10/10 13:34:12;;;;;;;8.32;1.60;;;;;;;;;;5034889;28;20091;-45
2021/10/10 13:36:39;;;;;;;4.57;1.67;;;;;;;;;;5034961;28;20017;-43
2021/10/10 13:39:07;;;;;;;2.95;1.50;;;;;;;;;;5034869;28;20496;-45
2021/10/10 13:41:35;;;;;;;6.20;1.70;;;;;;;;;;5034624;28;20029;-42
2021/10/10 13:44:02;;;;;;;6.78;1.73;;;;;;;;;;5034986;28;20022;-44
2021/10/10 13:46:29;;;;;;;6.85;1.67;;;;;;;;;;5034688;28;20033;-43
2021/10/10 13:48:56;;;;;;;5.78;1.80;;;;;;;;;;5033442;28;20053;-43
2021/10/10 13:51:23;;;;;;;4.57;1.70;;;;;;;;;;5034695;28;20022;-42
2021/10/10 13:53:50;;;;;;;3.97;1.60;;;;;;;;;;5034508;28;20028;-44
2021/10/10 13:56:17;;;;;;;3.63;1.92;;;;;;;;;;5034529;28;20028;-45
2021/10/10 13:58:44;;;;;;;7.50;2.00;;;;;;;;;;5034562;28;20045;-43
2021/10/10 14:01:11;;;;;;;4.57;1.70;;;;;;;;;;5034595;28;20473;-43
2021/10/10 14:03:45;;;;;;;5.20;2.05;;;;;;;;;;5034305;28;20057;-50
2021/10/10 14:06:13;;;;;;;5.30;1.67;;;;;;;;;;5034029;28;20397;-43
2021/10/10 14:08:41;;;;;;;6.75;1.77;;;;;;;;;;5034467;28;20026;-42
2021/10/10 14:11:08;;;;;;;6.18;1.98;;;;;;;;;;5034172;28;20025;-42
2021/10/10 14:13:35;;;;;;;4.32;1.63;;;;;;;;;;5034077;28;20026;-58
2021/10/10 14:16:02;;;;;;;7.75;2.03;;;;;;;;;;5034247;28;20025;-61
2021/10/10 14:18:29;;;;;;;4.32;1.70;;;;;;;;;;5016438;28;20025;-55
2021/10/10 14:20:56;;;;;;;4.40;1.50;;;;;;;;;;5034034;28;20047;-52
2021/10/10 14:23:23;;;;;;;8.75;1.60;;;;;;;;;;5034157;28;20022;-61
2021/10/10 14:25:51;;;;;;;6.95;2.13;;;;;;;;;;5033861;28;20076;-55
2021/10/10 14:28:18;;;;;;;3.97;1.40;;;;;;;;;;5032684;28;20053;-59
2021/10/10 14:30:45;;;;;;;4.10;1.70;;;;;;;;;;5033798;28;20048;-61
2021/10/10 14:33:14;;;;;;;6.45;1.92;;;;;;;;;;5033880;28;20104;-54
2021/10/10 14:35:41;;;;;;;9.77;2.00;;;;;;;;;;5034194;28;20474;-57
2021/10/10 14:38:08;;;;;;;7.20;2.00;;;;;;;;;;5033828;28;20021;-57
2021/10/10 14:40:40;;;;;;;6.45;1.80;;;;;;;;;;5033625;28;20025;-56
2021/10/10 14:43:09;;;;;;;3.53;1.70;;;;;;;;;;5033382;28;20393;-49
2021/10/10 14:45:45;;;;;;;5.20;1.85;;;;;;;;;;5033585;28;20060;-53
2021/10/10 14:48:13;;;;;;;3.95;1.70;;;;;;;;;;5033504;28;20022;-58
2021/10/10 14:50:42;;;;;;;6.80;1.73;;;;;;;;;;5033338;28;20109;-50
2021/10/10 14:53:11;;;;;;;10.95;2.25;;;;;;;;;;5033403;28;20018;-51
2021/10/10 14:55:38;;;;;;;6.50;1.77;;;;;;;;;;5032023;28;20044;-56
2021/10/10 14:58:07;;;;;;;5.75;1.85;;;;;;;;;;5033377;28;20112;-56